sensor_id;sensor_type;location;lat;lon;timestamp;pressure;altitude;pressure_sealevel;temperature;humidity
32320;BME280;19080;51.750;5.888;2023-05-02T00:00:30;101714.59;;;12.31;100.00
32320;BME280;19080;51.750;5.888;2023-05-02T00:02:57;101718.97;;;12.29;100.00
32320;BME280;19080;51.750;5.888;2023-05-02T00:05:25;101752.34;;;12.53;100.00
32320;BME280;19080;51.750;5.888;2023-05-02T00:07:52;101753.25;;;12.55;100.00
32320;BME280;19080;51.750;5.888;2023-05-02T00:10:19;101765.81;;;12.60;100.00
32320;BME280;19080;51.750;5.888;2023-05-02T00:12:46;101748.81;;;12.54;100.00
32320;BME280;19080;51.750;5.888;2023-05-02T00:15:13;101743.47;;;12.54;100.00
32320;BME280;19080;51.750;5.888;2023-05-02T00:17:40;101712.00;;;12.34;100.00
32320;BME280;19080;51.750;5.888;2023-05-02T00:20:11;101727.38;;;12.48;100.00
32320;BME280;19080;51.750;5.888;2023-05-02T00:22:39;101746.94;;;12.50;100.00
32320;BME280;19080;51.750;5.888;2023-05-02T00:25:06;101694.78;;;12.19;100.00
32320;BME280;19080;51.750;5.888;2023-05-02T00:27:33;101773.47;;;12.45;100.00
32320;BME280;19080;51.750;5.888;2023-05-02T00:30:00;101751.84;;;12.31;100.00
32320;BME280;19080;51.750;5.888;2023-05-02T00:32:27;101740.06;;;12.20;100.00
32320;BME280;19080;51.750;5.888;2023-05-02T00:34:55;101742.88;;;12.26;100.00
32320;BME280;19080;51.750;5.888;2023-05-02T00:37:25;101748.13;;;12.23;100.00
32320;BME280;19080;51.750;5.888;2023-05-02T00:39:53;101742.94;;;12.29;100.00
32320;BME280;19080;51.750;5.888;2023-05-02T00:42:20;101759.84;;;12.31;100.00
32320;BME280;19080;51.750;5.888;2023-05-02T00:44:47;101773.47;;;12.45;100.00
32320;BME280;19080;51.750;5.888;2023-05-02T00:47:14;101760.72;;;12.30;100.00
32320;BME280;19080;51.750;5.888;2023-05-02T00:49:42;101742.69;;;12.19;100.00
32320;BME280;19080;51.750;5.888;2023-05-02T00:52:09;101773.78;;;12.20;100.00
32320;BME280;19080;51.750;5.888;2023-05-02T00:54:38;101753.19;;;12.11;100.00
32320;BME280;19080;51.750;5.888;2023-05-02T00:57:05;101758.47;;;12.10;100.00
32320;BME280;19080;51.750;5.888;2023-05-02T00:59:34;101713.41;;;11.80;100.00
32320;BME280;19080;51.750;5.888;2023-05-02T01:05:20;101733.28;;;11.94;100.00
32320;BME280;19080;51.750;5.888;2023-05-02T01:08:05;101764.59;;;12.05;100.00
32320;BME280;19080;51.750;5.888;2023-05-02T01:10:51;101759.41;;;12.12;100.00
32320;BME280;19080;51.750;5.888;2023-05-02T01:13:28;101781.66;;;12.15;100.00
32320;BME280;19080;51.750;5.888;2023-05-02T01:15:58;101748.59;;;12.04;100.00
32320;BME280;19080;51.750;5.888;2023-05-02T01:18:30;101772.63;;;12.07;100.00
32320;BME280;19080;51.750;5.888;2023-05-02T01:20:59;101761.75;;;11.98;100.00
32320;BME280;19080;51.750;5.888;2023-05-02T01:23:59;101779.78;;;12.10;100.00
32320;BME280;19080;51.750;5.888;2023-05-02T01:29:05;101742.91;;;11.89;100.00
32320;BME280;19080;51.750;5.888;2023-05-02T01:31:34;101786.97;;;12.15;100.00
32320;BME280;19080;51.750;5.888;2023-05-02T01:34:04;101779.84;;;12.13;100.00
32320;BME280;19080;51.750;5.888;2023-05-02T01:36:33;101774.34;;;12.05;100.00
32320;BME280;19080;51.750;5.888;2023-05-02T01:39:00;101764.47;;;12.01;100.00
32320;BME280;19080;51.750;5.888;2023-05-02T01:41:30;101768.00;;;12.00;100.00
32320;BME280;19080;51.750;5.888;2023-05-02T01:43:58;101781.56;;;12.11;100.00
32320;BME280;19080;51.750;5.888;2023-05-02T01:46:32;101785.16;;;12.14;100.00
32320;BME280;19080;51.750;5.888;2023-05-02T01:49:02;101799.41;;;12.16;100.00
32320;BME280;19080;51.750;5.888;2023-05-02T01:51:32;101717.63;;;11.71;100.00
32320;BME280;19080;51.750;5.888;2023-05-02T01:54:02;101725.66;;;11.74;100.00
32320;BME280;19080;51.750;5.888;2023-05-02T01:56:37;101810.91;;;12.15;100.00
32320;BME280;19080;51.750;5.888;2023-05-02T01:59:10;101774.13;;;11.96;100.00
32320;BME280;19080;51.750;5.888;2023-05-02T02:01:39;101802.91;;;12.12;100.00
32320;BME280;19080;51.750;5.888;2023-05-02T02:04:08;101791.09;;;12.01;100.00
32320;BME280;19080;51.750;5.888;2023-05-02T02:06:35;101792.81;;;11.99;100.00
32320;BME280;19080;51.750;5.888;2023-05-02T02:09:02;101802.53;;;11.97;100.00
32320;BME280;19080;51.750;5.888;2023-05-02T02:11:34;101814.13;;;12.00;100.00
32320;BME280;19080;51.750;5.888;2023-05-02T02:14:06;101826.78;;;12.09;100.00
32320;BME280;19080;51.750;5.888;2023-05-02T02:16:40;101820.50;;;12.07;100.00
32320;BME280;19080;51.750;5.888;2023-05-02T02:19:10;101831.31;;;12.13;100.00
32320;BME280;19080;51.750;5.888;2023-05-02T02:21:39;101814.41;;;12.11;100.00
32320;BME280;19080;51.750;5.888;2023-05-02T02:24:08;101800.81;;;11.99;100.00
32320;BME280;19080;51.750;5.888;2023-05-02T02:26:36;101826.00;;;12.13;100.00
32320;BME280;19080;51.750;5.888;2023-05-02T02:29:03;101799.94;;;12.00;100.00
32320;BME280;19080;51.750;5.888;2023-05-02T02:31:34;101654.97;;;11.12;100.00
32320;BME280;19080;51.750;5.888;2023-05-02T02:34:02;101789.09;;;11.92;100.00
32320;BME280;19080;51.750;5.888;2023-05-02T02:36:32;101820.56;;;12.09;100.00
32320;BME280;19080;51.750;5.888;2023-05-02T02:39:17;101805.88;;;11.90;100.00
32320;BME280;19080;51.750;5.888;2023-05-02T02:42:10;101811.06;;;11.84;100.00
32320;BME280;19080;51.750;5.888;2023-05-02T02:44:55;101840.91;;;12.07;100.00
32320;BME280;19080;51.750;5.888;2023-05-02T02:47:52;101818.25;;;11.88;100.00
32320;BME280;19080;51.750;5.888;2023-05-02T02:53:19;101855.56;;;11.91;100.00
32320;BME280;19080;51.750;5.888;2023-05-02T02:55:56;101808.59;;;11.58;100.00
32320;BME280;19080;51.750;5.888;2023-05-02T03:01:15;101838.84;;;11.63;100.00
32320;BME280;19080;51.750;5.888;2023-05-02T03:03:44;101859.44;;;11.70;100.00
32320;BME280;19080;51.750;5.888;2023-05-02T03:06:12;101864.38;;;11.57;100.00
32320;BME280;19080;51.750;5.888;2023-05-02T03:08:39;101821.13;;;11.31;100.00
32320;BME280;19080;51.750;5.888;2023-05-02T03:11:09;101843.25;;;11.30;100.00
32320;BME280;19080;51.750;5.888;2023-05-02T03:13:36;101762.88;;;10.75;100.00
32320;BME280;19080;51.750;5.888;2023-05-02T03:16:33;101879.59;;;11.31;100.00
32320;BME280;19080;51.750;5.888;2023-05-02T03:19:02;101867.66;;;11.17;100.00
32320;BME280;19080;51.750;5.888;2023-05-02T03:21:29;101864.78;;;11.09;100.00
32320;BME280;19080;51.750;5.888;2023-05-02T03:24:06;101881.00;;;11.18;100.00
32320;BME280;19080;51.750;5.888;2023-05-02T03:26:33;101833.28;;;10.91;100.00
32320;BME280;19080;51.750;5.888;2023-05-02T03:29:01;101870.66;;;10.97;100.00
32320;BME280;19080;51.750;5.888;2023-05-02T03:31:34;101886.00;;;11.07;100.00
32320;BME280;19080;51.750;5.888;2023-05-02T03:34:00;101907.34;;;11.11;100.00
32320;BME280;19080;51.750;5.888;2023-05-02T03:36:27;101890.19;;;10.99;100.00
32320;BME280;19080;51.750;5.888;2023-05-02T03:38:54;101897.34;;;11.02;100.00
32320;BME280;19080;51.750;5.888;2023-05-02T03:41:22;101911.81;;;11.12;100.00
32320;BME280;19080;51.750;5.888;2023-05-02T03:43:57;101918.75;;;11.06;100.00
32320;BME280;19080;51.750;5.888;2023-05-02T03:46:25;101919.47;;;11.01;100.00
32320;BME280;19080;51.750;5.888;2023-05-02T03:48:53;101910.50;;;10.97;100.00
32320;BME280;19080;51.750;5.888;2023-05-02T03:51:19;101913.16;;;10.97;100.00
32320;BME280;19080;51.750;5.888;2023-05-02T03:53:50;101898.63;;;10.86;100.00
32320;BME280;19080;51.750;5.888;2023-05-02T03:56:17;101929.84;;;10.93;100.00
32320;BME280;19080;51.750;5.888;2023-05-02T03:58:58;101952.25;;;11.01;100.00
32320;BME280;19080;51.750;5.888;2023-05-02T04:01:26;101945.13;;;11.00;100.00
32320;BME280;19080;51.750;5.888;2023-05-02T04:03:54;101930.69;;;10.92;100.00
32320;BME280;19080;51.750;5.888;2023-05-02T04:06:24;101849.63;;;10.48;100.00
32320;BME280;19080;51.750;5.888;2023-05-02T04:08:56;101949.59;;;11.01;100.00
32320;BME280;19080;51.750;5.888;2023-05-02T04:11:27;101928.59;;;10.82;100.00
32320;BME280;19080;51.750;5.888;2023-05-02T04:13:54;101941.13;;;10.86;100.00
32320;BME280;19080;51.750;5.888;2023-05-02T04:16:21;101952.72;;;10.88;100.00
32320;BME280;19080;51.750;5.888;2023-05-02T04:18:48;101951.75;;;10.86;100.00
32320;BME280;19080;51.750;5.888;2023-05-02T04:21:15;101919.22;;;10.65;100.00
32320;BME280;19080;51.750;5.888;2023-05-02T04:23:44;101960.78;;;10.91;100.00
32320;BME280;19080;51.750;5.888;2023-05-02T04:26:10;101937.22;;;10.75;100.00
32320;BME280;19080;51.750;5.888;2023-05-02T04:28:50;101951.72;;;10.85;100.00
32320;BME280;19080;51.750;5.888;2023-05-02T04:31:18;101978.72;;;10.98;100.00
32320;BME280;19080;51.750;5.888;2023-05-02T04:33:46;101912.19;;;10.67;100.00
32320;BME280;19080;51.750;5.888;2023-05-02T04:36:17;101951.66;;;10.83;100.00
32320;BME280;19080;51.750;5.888;2023-05-02T04:38:47;101984.78;;;10.94;100.00
32320;BME280;19080;51.750;5.888;2023-05-02T04:41:15;101962.09;;;10.77;100.00
32320;BME280;19080;51.750;5.888;2023-05-02T04:43:49;101957.19;;;10.62;100.00
32320;BME280;19080;51.750;5.888;2023-05-02T04:46:16;101917.13;;;10.28;100.00
32320;BME280;19080;51.750;5.888;2023-05-02T04:48:46;101961.81;;;10.42;100.00
32320;BME280;19080;51.750;5.888;2023-05-02T04:51:12;101930.75;;;10.13;100.00
32320;BME280;19080;51.750;5.888;2023-05-02T04:53:44;101993.78;;;10.46;100.00
32320;BME280;19080;51.750;5.888;2023-05-02T04:56:11;101968.72;;;10.36;100.00
32320;BME280;19080;51.750;5.888;2023-05-02T04:58:38;101995.94;;;10.57;100.00
32320;BME280;19080;51.750;5.888;2023-05-02T05:01:07;101991.00;;;10.68;100.00
32320;BME280;19080;51.750;5.888;2023-05-02T05:03:34;102022.72;;;10.90;100.00
32320;BME280;19080;51.750;5.888;2023-05-02T05:06:01;102012.41;;;10.99;100.00
32320;BME280;19080;51.750;5.888;2023-05-02T05:08:29;102002.47;;;10.94;100.00
32320;BME280;19080;51.750;5.888;2023-05-02T05:10:55;102033.59;;;11.25;100.00
32320;BME280;19080;51.750;5.888;2023-05-02T05:13:23;102016.41;;;11.14;100.00
32320;BME280;19080;51.750;5.888;2023-05-02T05:15:52;101976.00;;;10.97;100.00
32320;BME280;19080;51.750;5.888;2023-05-02T05:18:23;102020.47;;;11.31;100.00
32320;BME280;19080;51.750;5.888;2023-05-02T05:20:49;102036.53;;;11.34;100.00
32320;BME280;19080;51.750;5.888;2023-05-02T05:23:16;102036.72;;;11.40;100.00
32320;BME280;19080;51.750;5.888;2023-05-02T05:25:43;102020.28;;;11.25;100.00
32320;BME280;19080;51.750;5.888;2023-05-02T05:28:13;102031.31;;;11.37;100.00
32320;BME280;19080;51.750;5.888;2023-05-02T05:30:40;102070.03;;;11.57;100.00
32320;BME280;19080;51.750;5.888;2023-05-02T05:33:10;102049.25;;;11.44;100.00
32320;BME280;19080;51.750;5.888;2023-05-02T05:35:37;102035.81;;;11.39;100.00
32320;BME280;19080;51.750;5.888;2023-05-02T05:38:03;102065.84;;;11.65;100.00
32320;BME280;19080;51.750;5.888;2023-05-02T05:40:33;102049.00;;;11.65;100.00
32320;BME280;19080;51.750;5.888;2023-05-02T05:43:00;102062.88;;;11.83;100.00
32320;BME280;19080;51.750;5.888;2023-05-02T05:45:31;102083.94;;;12.05;100.00
32320;BME280;19080;51.750;5.888;2023-05-02T05:47:57;102055.31;;;11.97;100.00
32320;BME280;19080;51.750;5.888;2023-05-02T05:50:27;102004.09;;;11.76;100.00
32320;BME280;19080;51.750;5.888;2023-05-02T05:52:54;102086.66;;;12.07;100.00
32320;BME280;19080;51.750;5.888;2023-05-02T05:55:20;102053.22;;;11.87;100.00
32320;BME280;19080;51.750;5.888;2023-05-02T05:57:47;102109.88;;;12.14;100.00
32320;BME280;19080;51.750;5.888;2023-05-02T06:00:15;102090.63;;;11.91;100.00
32320;BME280;19080;51.750;5.888;2023-05-02T06:02:44;102069.06;;;11.82;100.00
32320;BME280;19080;51.750;5.888;2023-05-02T06:05:19;102041.78;;;11.61;100.00
32320;BME280;19080;51.750;5.888;2023-05-02T06:07:45;102096.56;;;11.83;100.00
32320;BME280;19080;51.750;5.888;2023-05-02T06:10:12;102033.28;;;11.44;100.00
32320;BME280;19080;51.750;5.888;2023-05-02T06:12:41;102124.06;;;11.83;100.00
32320;BME280;19080;51.750;5.888;2023-05-02T06:15:09;102103.63;;;11.54;100.00
32320;BME280;19080;51.750;5.888;2023-05-02T06:17:36;102136.88;;;11.68;100.00
32320;BME280;19080;51.750;5.888;2023-05-02T06:20:04;102142.22;;;11.69;100.00
32320;BME280;19080;51.750;5.888;2023-05-02T06:22:32;102101.72;;;11.50;100.00
32320;BME280;19080;51.750;5.888;2023-05-02T06:24:58;102099.72;;;11.43;100.00
32320;BME280;19080;51.750;5.888;2023-05-02T06:27:26;102071.94;;;11.33;100.00
32320;BME280;19080;51.750;5.888;2023-05-02T06:29:53;102022.22;;;11.02;100.00
32320;BME280;19080;51.750;5.888;2023-05-02T06:32:19;102153.56;;;11.91;100.00
32320;BME280;19080;51.750;5.888;2023-05-02T06:34:46;102151.69;;;11.87;100.00
32320;BME280;19080;51.750;5.888;2023-05-02T06:37:13;102119.97;;;11.66;100.00
32320;BME280;19080;51.750;5.888;2023-05-02T06:39:39;102175.38;;;12.08;100.00
32320;BME280;19080;51.750;5.888;2023-05-02T06:42:06;102154.66;;;11.97;100.00
32320;BME280;19080;51.750;5.888;2023-05-02T06:44:33;102146.91;;;12.05;100.00
32320;BME280;19080;51.750;5.888;2023-05-02T06:47:00;102173.19;;;12.24;100.00
32320;BME280;19080;51.750;5.888;2023-05-02T06:49:27;102118.91;;;12.19;100.00
32320;BME280;19080;51.750;5.888;2023-05-02T06:51:53;102181.81;;;12.46;100.00
32320;BME280;19080;51.750;5.888;2023-05-02T06:54:20;102181.34;;;12.60;100.00
32320;BME280;19080;51.750;5.888;2023-05-02T06:56:47;102120.13;;;12.30;100.00
32320;BME280;19080;51.750;5.888;2023-05-02T06:59:13;102202.09;;;12.72;100.00
32320;BME280;19080;51.750;5.888;2023-05-02T07:01:45;102207.59;;;12.78;100.00
32320;BME280;19080;51.750;5.888;2023-05-02T07:04:11;102156.72;;;12.37;100.00
32320;BME280;19080;51.750;5.888;2023-05-02T07:06:39;102221.81;;;12.79;100.00
32320;BME280;19080;51.750;5.888;2023-05-02T07:09:05;102215.25;;;12.97;100.00
32320;BME280;19080;51.750;5.888;2023-05-02T07:11:32;102191.16;;;12.94;100.00
32320;BME280;19080;51.750;5.888;2023-05-02T07:13:58;102166.69;;;12.76;100.00
32320;BME280;19080;51.750;5.888;2023-05-02T07:16:25;102225.47;;;13.14;100.00
32320;BME280;19080;51.750;5.888;2023-05-02T07:18:52;102225.72;;;13.23;100.00
32320;BME280;19080;51.750;5.888;2023-05-02T07:21:18;102223.06;;;13.23;98.74
32320;BME280;19080;51.750;5.888;2023-05-02T07:23:45;102244.47;;;13.26;100.00
32320;BME280;19080;51.750;5.888;2023-05-02T07:26:12;102239.63;;;13.44;100.00
32320;BME280;19080;51.750;5.888;2023-05-02T07:28:38;102239.03;;;13.56;99.17
32320;BME280;19080;51.750;5.888;2023-05-02T07:31:05;102250.06;;;13.70;99.72
32320;BME280;19080;51.750;5.888;2023-05-02T07:33:31;102218.63;;;13.58;99.87
32320;BME280;19080;51.750;5.888;2023-05-02T07:35:58;102253.16;;;13.88;100.00
32320;BME280;19080;51.750;5.888;2023-05-02T07:38:26;102254.94;;;13.89;94.08
32320;BME280;19080;51.750;5.888;2023-05-02T07:40:56;102187.34;;;13.51;91.65
32320;BME280;19080;51.750;5.888;2023-05-02T07:43:23;102265.72;;;13.92;92.37
32320;BME280;19080;51.750;5.888;2023-05-02T07:45:50;102272.84;;;13.93;94.31
32320;BME280;19080;51.750;5.888;2023-05-02T07:48:16;102237.75;;;13.75;96.32
32320;BME280;19080;51.750;5.888;2023-05-02T07:50:43;102242.13;;;13.73;94.96
32320;BME280;19080;51.750;5.888;2023-05-02T07:53:09;102269.03;;;13.82;96.49
32320;BME280;19080;51.750;5.888;2023-05-02T07:55:36;102184.47;;;13.43;92.63
32320;BME280;19080;51.750;5.888;2023-05-02T07:58:03;102261.28;;;13.92;93.37
32320;BME280;19080;51.750;5.888;2023-05-02T08:00:30;102255.03;;;13.92;91.24
32320;BME280;19080;51.750;5.888;2023-05-02T08:02:56;102271.13;;;13.95;88.91
32320;BME280;19080;51.750;5.888;2023-05-02T08:05:23;102203.47;;;13.55;78.38
32320;BME280;19080;51.750;5.888;2023-05-02T08:07:50;102279.72;;;13.82;73.46
32320;BME280;19080;51.750;5.888;2023-05-02T08:10:16;102271.56;;;13.76;73.39
32320;BME280;19080;51.750;5.888;2023-05-02T08:12:43;102278.09;;;13.90;74.62
32320;BME280;19080;51.750;5.888;2023-05-02T08:15:11;102284.66;;;14.02;73.39
32320;BME280;19080;51.750;5.888;2023-05-02T08:17:39;102283.06;;;14.11;69.09
32320;BME280;19080;51.750;5.888;2023-05-02T08:20:06;102286.59;;;14.10;66.07
32320;BME280;19080;51.750;5.888;2023-05-02T08:22:32;102293.00;;;14.16;63.58
32320;BME280;19080;51.750;5.888;2023-05-02T08:24:59;102284.88;;;14.12;64.87
32320;BME280;19080;51.750;5.888;2023-05-02T08:27:26;102299.09;;;14.11;63.17
32320;BME280;19080;51.750;5.888;2023-05-02T08:29:52;102301.88;;;14.15;61.10
32320;BME280;19080;51.750;5.888;2023-05-02T08:32:19;102309.41;;;14.33;59.19
32320;BME280;19080;51.750;5.888;2023-05-02T08:34:46;102320.59;;;14.53;56.37
32320;BME280;19080;51.750;5.888;2023-05-02T08:37:12;102306.47;;;14.58;56.28
32320;BME280;19080;51.750;5.888;2023-05-02T08:39:39;102181.94;;;13.87;54.87
32320;BME280;19080;51.750;5.888;2023-05-02T08:42:06;102273.31;;;14.50;53.04
32320;BME280;19080;51.750;5.888;2023-05-02T08:44:33;102305.84;;;14.70;53.17
32320;BME280;19080;51.750;5.888;2023-05-02T08:47:00;102240.72;;;14.27;53.36
32320;BME280;19080;51.750;5.888;2023-05-02T08:49:30;102316.56;;;14.72;54.37
32320;BME280;19080;51.750;5.888;2023-05-02T08:51:59;102248.47;;;14.15;55.54
32320;BME280;19080;51.750;5.888;2023-05-02T08:54:26;102339.47;;;14.60;55.67
32320;BME280;19080;51.750;5.888;2023-05-02T08:56:53;102324.91;;;14.46;55.70
32320;BME280;19080;51.750;5.888;2023-05-02T08:59:20;102338.28;;;14.48;56.04
32320;BME280;19080;51.750;5.888;2023-05-02T09:01:48;102320.00;;;14.28;56.10
32320;BME280;19080;51.750;5.888;2023-05-02T09:04:23;102320.59;;;14.17;58.34
32320;BME280;19080;51.750;5.888;2023-05-02T09:06:49;102357.09;;;14.16;60.25
32320;BME280;19080;51.750;5.888;2023-05-02T09:09:16;102333.81;;;13.75;64.41
32320;BME280;19080;51.750;5.888;2023-05-02T09:11:45;102301.16;;;13.50;67.05
32320;BME280;19080;51.750;5.888;2023-05-02T09:14:16;102368.09;;;13.94;69.28
32320;BME280;19080;51.750;5.888;2023-05-02T09:16:43;102367.91;;;14.22;69.82
32320;BME280;19080;51.750;5.888;2023-05-02T09:19:10;102362.94;;;14.38;67.84
32320;BME280;19080;51.750;5.888;2023-05-02T09:21:48;102337.34;;;14.46;62.86
32320;BME280;19080;51.750;5.888;2023-05-02T09:24:19;102363.41;;;14.56;62.03
32320;BME280;19080;51.750;5.888;2023-05-02T09:29:23;102305.72;;;14.65;62.86
32320;BME280;19080;51.750;5.888;2023-05-02T09:31:50;102388.28;;;15.33;59.84
32320;BME280;19080;51.750;5.888;2023-05-02T09:34:22;102383.34;;;15.54;59.36
32320;BME280;19080;51.750;5.888;2023-05-02T09:36:50;102369.84;;;15.95;55.75
32320;BME280;19080;51.750;5.888;2023-05-02T09:39:22;102371.03;;;16.12;53.42
32320;BME280;19080;51.750;5.888;2023-05-02T09:41:51;102321.53;;;15.89;52.92
32320;BME280;19080;51.750;5.888;2023-05-02T09:44:23;102373.38;;;15.94;53.78
32320;BME280;19080;51.750;5.888;2023-05-02T09:46:55;102378.00;;;15.54;53.69
32320;BME280;19080;51.750;5.888;2023-05-02T09:49:38;102391.28;;;15.48;51.05
32320;BME280;19080;51.750;5.888;2023-05-02T09:52:14;102326.69;;;14.86;50.66
32320;BME280;19080;51.750;5.888;2023-05-02T09:54:41;102390.66;;;15.18;48.83
32320;BME280;19080;51.750;5.888;2023-05-02T09:57:08;102332.09;;;14.89;49.33
32320;BME280;19080;51.750;5.888;2023-05-02T09:59:38;102398.19;;;15.37;48.50
32320;BME280;19080;51.750;5.888;2023-05-02T10:02:05;102332.59;;;15.14;48.10
32320;BME280;19080;51.750;5.888;2023-05-02T10:04:33;102362.69;;;15.47;47.48
32320;BME280;19080;51.750;5.888;2023-05-02T10:07:01;102416.00;;;15.82;47.34
32320;BME280;19080;51.750;5.888;2023-05-02T10:09:29;102412.38;;;16.28;46.78
32320;BME280;19080;51.750;5.888;2023-05-02T10:12:00;102398.13;;;16.86;45.06
32320;BME280;19080;51.750;5.888;2023-05-02T10:14:38;102373.03;;;16.81;45.23
32320;BME280;19080;51.750;5.888;2023-05-02T10:17:10;102420.84;;;17.11;46.54
32320;BME280;19080;51.750;5.888;2023-05-02T10:22:18;102340.56;;;17.30;45.34
32320;BME280;19080;51.750;5.888;2023-05-02T10:24:48;102350.91;;;17.78;43.00
32320;BME280;19080;51.750;5.888;2023-05-02T10:27:15;102410.16;;;17.93;41.33
32320;BME280;19080;51.750;5.888;2023-05-02T10:29:43;102425.63;;;17.38;41.99
32320;BME280;19080;51.750;5.888;2023-05-02T10:32:10;102410.34;;;17.30;42.98
32320;BME280;19080;51.750;5.888;2023-05-02T10:34:38;102419.50;;;17.50;43.78
32320;BME280;19080;51.750;5.888;2023-05-02T10:37:05;102361.25;;;18.32;42.70
32320;BME280;19080;51.750;5.888;2023-05-02T10:39:32;102401.50;;;19.96;39.40
32320;BME280;19080;51.750;5.888;2023-05-02T10:42:00;102381.75;;;20.52;37.12
32320;BME280;19080;51.750;5.888;2023-05-02T10:44:36;102397.00;;;20.09;39.00
32320;BME280;19080;51.750;5.888;2023-05-02T10:47:30;102413.19;;;20.01;39.14
32320;BME280;19080;51.750;5.888;2023-05-02T10:50:00;102344.72;;;19.29;37.92
32320;BME280;19080;51.750;5.888;2023-05-02T10:52:37;102417.47;;;19.35;38.75
32320;BME280;19080;51.750;5.888;2023-05-02T10:55:22;102411.06;;;19.04;38.30
32320;BME280;19080;51.750;5.888;2023-05-02T11:00:33;102392.94;;;21.82;33.60
32320;BME280;19080;51.750;5.888;2023-05-02T11:03:00;102405.25;;;22.29;33.35
32320;BME280;19080;51.750;5.888;2023-05-02T11:05:28;102390.56;;;21.17;33.83
32320;BME280;19080;51.750;5.888;2023-05-02T11:10:40;102385.28;;;19.81;35.55
32320;BME280;19080;51.750;5.888;2023-05-02T11:13:07;102392.44;;;19.62;36.25
32320;BME280;19080;51.750;5.888;2023-05-02T11:18:12;102337.56;;;20.87;32.43
32320;BME280;19080;51.750;5.888;2023-05-02T11:20:41;102390.44;;;22.66;32.55
32320;BME280;19080;51.750;5.888;2023-05-02T11:25:43;102346.84;;;21.99;31.29
32320;BME280;19080;51.750;5.888;2023-05-02T11:31:04;102348.38;;;19.49;34.58
32320;BME280;19080;51.750;5.888;2023-05-02T11:33:30;102406.81;;;19.67;35.97
32320;BME280;19080;51.750;5.888;2023-05-02T11:35:57;102404.03;;;21.21;34.91
32320;BME280;19080;51.750;5.888;2023-05-02T11:38:25;102402.53;;;22.29;33.03
32320;BME280;19080;51.750;5.888;2023-05-02T11:40:57;102397.38;;;22.95;31.66
32320;BME280;19080;51.750;5.888;2023-05-02T11:43:26;102396.34;;;23.07;31.87
32320;BME280;19080;51.750;5.888;2023-05-02T11:45:57;102401.13;;;22.82;31.29
32320;BME280;19080;51.750;5.888;2023-05-02T11:48:25;102404.72;;;22.84;30.38
32320;BME280;19080;51.750;5.888;2023-05-02T11:50:58;102400.59;;;20.79;32.29
32320;BME280;19080;51.750;5.888;2023-05-02T11:53:28;102391.59;;;19.86;34.75
32320;BME280;19080;51.750;5.888;2023-05-02T11:56:01;102368.25;;;20.61;33.20
32320;BME280;19080;51.750;5.888;2023-05-02T11:58:30;102402.88;;;21.80;33.15
32320;BME280;19080;51.750;5.888;2023-05-02T12:01:13;102403.81;;;22.83;30.66
32320;BME280;19080;51.750;5.888;2023-05-02T12:03:41;102394.00;;;22.68;31.27
32320;BME280;19080;51.750;5.888;2023-05-02T12:06:15;102387.19;;;23.15;29.70
32320;BME280;19080;51.750;5.888;2023-05-02T12:08:44;102386.59;;;24.21;28.31
32320;BME280;19080;51.750;5.888;2023-05-02T12:11:12;102408.16;;;24.30;28.60
32320;BME280;19080;51.750;5.888;2023-05-02T12:13:45;102396.75;;;24.08;28.33
32320;BME280;19080;51.750;5.888;2023-05-02T12:16:13;102396.25;;;24.39;28.44
32320;BME280;19080;51.750;5.888;2023-05-02T12:18:40;102409.28;;;24.67;28.66
32320;BME280;19080;51.750;5.888;2023-05-02T12:21:08;102388.81;;;24.96;28.70
32320;BME280;19080;51.750;5.888;2023-05-02T12:23:35;102406.19;;;24.38;27.78
32320;BME280;19080;51.750;5.888;2023-05-02T12:26:16;102423.47;;;23.76;30.55
32320;BME280;19080;51.750;5.888;2023-05-02T12:28:53;102382.25;;;22.72;30.52
32320;BME280;19080;51.750;5.888;2023-05-02T12:31:20;102433.63;;;21.59;30.93
32320;BME280;19080;51.750;5.888;2023-05-02T12:33:47;102432.94;;;20.89;32.97
32320;BME280;19080;51.750;5.888;2023-05-02T12:36:19;102422.06;;;22.60;30.59
32320;BME280;19080;51.750;5.888;2023-05-02T12:38:50;102384.97;;;22.71;30.77
32320;BME280;19080;51.750;5.888;2023-05-02T12:41:33;102434.59;;;23.53;29.74
32320;BME280;19080;51.750;5.888;2023-05-02T12:44:00;102430.84;;;23.66;29.49
32320;BME280;19080;51.750;5.888;2023-05-02T12:46:27;102432.91;;;24.09;28.13
32320;BME280;19080;51.750;5.888;2023-05-02T12:49:07;102383.88;;;23.64;27.72
32320;BME280;19080;51.750;5.888;2023-05-02T12:51:52;102436.53;;;24.09;28.39
32320;BME280;19080;51.750;5.888;2023-05-02T12:54:19;102441.59;;;24.32;28.16
32320;BME280;19080;51.750;5.888;2023-05-02T12:56:46;102437.09;;;24.31;27.85
32320;BME280;19080;51.750;5.888;2023-05-02T12:59:28;102446.38;;;24.15;28.07
32320;BME280;19080;51.750;5.888;2023-05-02T13:01:54;102449.78;;;23.69;27.89
32320;BME280;19080;51.750;5.888;2023-05-02T13:04:40;102446.75;;;24.49;27.53
32320;BME280;19080;51.750;5.888;2023-05-02T13:07:07;102415.00;;;24.52;27.42
32320;BME280;19080;51.750;5.888;2023-05-02T13:09:34;102445.13;;;24.88;27.21
32320;BME280;19080;51.750;5.888;2023-05-02T13:12:00;102434.16;;;24.94;27.33
32320;BME280;19080;51.750;5.888;2023-05-02T13:14:29;102449.78;;;23.69;28.21
32320;BME280;19080;51.750;5.888;2023-05-02T13:16:56;102442.75;;;22.68;30.23
32320;BME280;19080;51.750;5.888;2023-05-02T13:19:23;102433.78;;;22.60;29.89
32320;BME280;19080;51.750;5.888;2023-05-02T13:21:49;102451.44;;;23.04;29.91
32320;BME280;19080;51.750;5.888;2023-05-02T13:24:16;102426.22;;;22.97;29.35
32320;BME280;19080;51.750;5.888;2023-05-02T13:26:43;102451.69;;;22.77;29.08